Time;durP1;ratioP1;P1;durP2;ratioP2;P2;SDS_P1;SDS_P2;PMS_P1;PMS_P2;Temp;Humidity;BMP_temperature;BMP_pressure;BME280_temperature;BME280_humidity;BME280_pressure;Samples;Min_cycle;Max_cycle;Signal;HPM_P1;HPM_P2
2021/12/08 00:00:37;;;;;;;11.75;10.85;;;;;;;;;;4995896;28;20038;-71
2021/12/08 00:03:05;;;;;;;14.13;10.57;;;;;;;;;;4998461;28;20046;-70
2021/12/08 00:05:31;;;;;;;11.23;10.52;;;;;;;;;;4994941;28;20046;-71
2021/12/08 00:07:58;;;;;;;11.68;10.80;;;;;;;;;;4994701;28;20034;-70
2021/12/08 00:13:05;;;;;;;11.60;10.80;;;;;;;;;;5001464;28;20045;-71
2021/12/08 00:15:38;;;;;;;10.73;10.02;;;;;;;;;;4994679;28;20489;-70
2021/12/08 00:18:10;;;;;;;11.30;10.50;;;;;;;;;;4977137;28;20220;-71
2021/12/08 00:20:37;;;;;;;10.27;9.68;;;;;;;;;;4987506;28;20034;-71
2021/12/08 00:23:05;;;;;;;10.27;9.68;;;;;;;;;;4997968;28;20041;-71
2021/12/08 00:25:32;;;;;;;10.43;9.82;;;;;;;;;;4994384;28;20042;-71
2021/12/08 00:27:58;;;;;;;10.45;9.80;;;;;;;;;;4994966;28;20278;-71
2021/12/08 00:30:25;;;;;;;10.57;9.82;;;;;;;;;;4997512;28;20398;-71
2021/12/08 00:32:52;;;;;;;11.40;10.65;;;;;;;;;;4998457;28;20302;-70
2021/12/08 00:35:19;;;;;;;11.15;10.35;;;;;;;;;;4995893;28;20121;-70
2021/12/08 00:37:44;;;;;;;11.02;10.30;;;;;;;;;;4989993;28;20038;-71
2021/12/08 00:40:12;;;;;;;10.85;9.63;;;;;;;;;;4976963;28;20553;-70
2021/12/08 00:42:38;;;;;;;10.23;9.38;;;;;;;;;;4970836;28;20034;-70
2021/12/08 00:45:06;;;;;;;10.35;9.65;;;;;;;;;;4984083;28;20042;-70
2021/12/08 00:47:32;;;;;;;10.18;9.52;;;;;;;;;;4994830;28;20759;-71
2021/12/08 00:49:58;;;;;;;10.20;9.50;;;;;;;;;;5001392;28;20049;-71
2021/12/08 00:52:31;;;;;;;9.45;8.85;;;;;;;;;;4988582;28;20089;-71
2021/12/08 00:54:57;;;;;;;9.30;8.60;;;;;;;;;;4999986;28;20105;-71
2021/12/08 00:57:23;;;;;;;8.35;7.85;;;;;;;;;;4999164;28;20104;-71
2021/12/08 00:59:49;;;;;;;8.57;7.82;;;;;;;;;;4996276;28;20046;-71
2021/12/08 01:02:15;;;;;;;7.97;7.47;;;;;;;;;;4996437;28;20038;-70
2021/12/08 01:04:40;;;;;;;9.70;8.45;;;;;;;;;;4996673;28;20034;-70
2021/12/08 01:07:06;;;;;;;8.40;7.78;;;;;;;;;;4994123;28;20061;-70
2021/12/08 01:09:32;;;;;;;8.10;7.57;;;;;;;;;;4990217;28;20046;-70
2021/12/08 01:12:01;;;;;;;8.30;7.70;;;;;;;;;;4982396;28;20062;-70
2021/12/08 01:14:29;;;;;;;8.68;7.90;;;;;;;;;;4992739;28;20093;-70
2021/12/08 01:16:55;;;;;;;8.05;7.55;;;;;;;;;;4987237;28;20041;-70
2021/12/08 01:19:21;;;;;;;8.50;7.82;;;;;;;;;;4990878;28;20450;-70
2021/12/08 01:21:47;;;;;;;8.10;7.50;;;;;;;;;;4985428;28;20080;-71
2021/12/08 01:24:12;;;;;;;8.30;7.70;;;;;;;;;;4969828;28;20524;-71
2021/12/08 01:26:38;;;;;;;9.27;8.40;;;;;;;;;;4979256;28;20074;-71
2021/12/08 01:29:04;;;;;;;9.00;8.40;;;;;;;;;;4995092;28;20489;-70
2021/12/08 01:31:29;;;;;;;9.30;8.50;;;;;;;;;;4993031;28;20045;-71
2021/12/08 01:33:56;;;;;;;9.23;8.43;;;;;;;;;;4967314;28;20041;-71
2021/12/08 01:36:21;;;;;;;8.77;8.23;;;;;;;;;;4976436;28;20065;-71
2021/12/08 01:38:47;;;;;;;9.93;8.90;;;;;;;;;;4982170;28;20046;-71
2021/12/08 01:41:13;;;;;;;10.07;9.25;;;;;;;;;;4978246;28;20487;-71
2021/12/08 01:45:56;;;;;;;9.50;8.60;;;;;;;;;;4975413;28;20041;-71
2021/12/08 01:46:25;;;;;;;9.60;8.90;;;;;;;;;;4978239;28;20115;-71
2021/12/08 01:48:51;;;;;;;10.85;9.52;;;;;;;;;;4972589;28;20043;-71
2021/12/08 01:51:18;;;;;;;9.80;9.10;;;;;;;;;;4978600;28;20175;-71
2021/12/08 01:53:53;;;;;;;9.82;9.05;;;;;;;;;;4990947;28;20125;-71
2021/12/08 01:56:21;;;;;;;9.48;8.88;;;;;;;;;;4973408;28;20165;-71
2021/12/08 01:58:47;;;;;;;9.27;8.68;;;;;;;;;;4983444;28;20746;-71
2021/12/08 02:01:16;;;;;;;9.30;8.70;;;;;;;;;;4990685;28;20177;-71
2021/12/08 02:03:43;;;;;;;9.43;8.82;;;;;;;;;;5004824;28;20042;-71
2021/12/08 02:06:10;;;;;;;9.32;8.73;;;;;;;;;;4971633;28;20110;-71
2021/12/08 02:08:38;;;;;;;9.45;8.85;;;;;;;;;;4989281;28;20529;-71
2021/12/08 02:11:05;;;;;;;10.07;9.27;;;;;;;;;;4998149;28;20037;-70
2021/12/08 02:13:37;;;;;;;10.00;9.30;;;;;;;;;;4996646;28;20037;-70
2021/12/08 02:16:06;;;;;;;9.40;8.90;;;;;;;;;;4956351;28;20464;-71
2021/12/08 02:18:31;;;;;;;10.18;9.48;;;;;;;;;;4989026;28;20133;-71
2021/12/08 02:20:59;;;;;;;9.68;8.88;;;;;;;;;;4994872;28;20121;-71
2021/12/08 02:23:25;;;;;;;10.65;9.65;;;;;;;;;;4988771;28;20041;-71
2021/12/08 02:25:50;;;;;;;9.27;8.68;;;;;;;;;;4991535;28;20775;-70
2021/12/08 02:28:17;;;;;;;9.90;9.20;;;;;;;;;;4988194;28;20166;-70
2021/12/08 02:30:55;;;;;;;10.50;9.60;;;;;;;;;;4983969;28;20043;-70
2021/12/08 02:47:16;;;;;;;10.00;9.40;;;;;;;;;;4963368;28;20055;-70
2021/12/08 02:49:42;;;;;;;10.20;9.40;;;;;;;;;;4953870;28;20038;-70
2021/12/08 02:52:10;;;;;;;10.05;9.05;;;;;;;;;;4976256;28;20093;-70
2021/12/08 02:54:40;;;;;;;10.15;9.45;;;;;;;;;;4986949;28;20068;-70
2021/12/08 02:57:07;;;;;;;9.98;9.27;;;;;;;;;;5016787;23;20046;-72
2021/12/08 02:59:33;;;;;;;9.60;8.90;;;;;;;;;;5000280;28;20129;-72
2021/12/08 03:01:59;;;;;;;10.20;9.40;;;;;;;;;;4986850;28;20038;-73
2021/12/08 03:04:25;;;;;;;10.70;9.82;;;;;;;;;;4998077;28;20030;-73
2021/12/08 03:06:51;;;;;;;12.10;9.88;;;;;;;;;;4989385;28;20034;-73
2021/12/08 03:09:16;;;;;;;10.20;9.50;;;;;;;;;;4981940;28;20030;-73
2021/12/08 03:11:42;;;;;;;10.00;9.10;;;;;;;;;;5001568;28;20531;-73
2021/12/08 03:14:11;;;;;;;10.05;9.40;;;;;;;;;;4974153;28;20383;-73
2021/12/08 03:16:40;;;;;;;9.87;9.27;;;;;;;;;;4989698;28;20042;-73
2021/12/08 03:19:06;;;;;;;10.60;9.88;;;;;;;;;;4987805;28;20057;-73
2021/12/08 03:21:33;;;;;;;10.65;9.90;;;;;;;;;;5004227;28;20042;-73
2021/12/08 03:24:11;;;;;;;9.82;9.20;;;;;;;;;;4979594;28;20042;-73
2021/12/08 03:26:47;;;;;;;10.60;10.00;;;;;;;;;;4972293;28;20041;-73
2021/12/08 03:29:31;;;;;;;9.98;9.27;;;;;;;;;;5002872;28;20291;-72
2021/12/08 03:32:05;;;;;;;10.90;10.00;;;;;;;;;;4988623;28;20030;-73
2021/12/08 03:34:35;;;;;;;9.68;9.07;;;;;;;;;;4986226;28;20644;-73
2021/12/08 03:37:02;;;;;;;10.90;10.13;;;;;;;;;;4984077;28;20477;-73
2021/12/08 03:39:28;;;;;;;10.15;9.30;;;;;;;;;;4995528;28;20536;-73
2021/12/08 03:41:54;;;;;;;10.30;9.63;;;;;;;;;;4985177;28;20213;-72
2021/12/08 03:44:20;;;;;;;9.85;9.02;;;;;;;;;;4986783;28;20064;-72
2021/12/08 03:46:45;;;;;;;10.07;9.48;;;;;;;;;;4995033;28;20041;-72
2021/12/08 03:49:16;;;;;;;10.23;9.52;;;;;;;;;;4982392;28;20062;-72
2021/12/08 03:51:43;;;;;;;9.73;9.02;;;;;;;;;;4962925;28;20498;-73
2021/12/08 03:54:10;;;;;;;10.15;9.35;;;;;;;;;;4978669;28;20057;-73
2021/12/08 03:56:36;;;;;;;9.25;8.70;;;;;;;;;;4974258;28;20034;-73
2021/12/08 03:59:03;;;;;;;9.60;8.90;;;;;;;;;;4997911;28;20073;-73
2021/12/08 04:01:29;;;;;;;9.82;9.23;;;;;;;;;;4985585;28;20030;-72
2021/12/08 04:04:00;;;;;;;10.75;9.63;;;;;;;;;;4980056;28;20037;-73
2021/12/08 04:06:39;;;;;;;9.75;9.15;;;;;;;;;;4980858;28;20065;-73
2021/12/08 04:09:13;;;;;;;11.60;9.65;;;;;;;;;;4993804;28;20062;-73
2021/12/08 04:11:39;;;;;;;9.70;9.10;;;;;;;;;;4996446;28;20108;-73
2021/12/08 04:14:09;;;;;;;10.60;9.80;;;;;;;;;;4981049;28;20485;-73
2021/12/08 04:16:41;;;;;;;10.00;9.20;;;;;;;;;;4985582;28;20038;-73
2021/12/08 04:19:08;;;;;;;11.30;10.38;;;;;;;;;;4995806;28;20065;-72
2021/12/08 04:21:35;;;;;;;10.90;9.90;;;;;;;;;;5000236;28;20501;-72
2021/12/08 04:24:00;;;;;;;11.02;10.32;;;;;;;;;;4981164;28;20039;-72
2021/12/08 04:26:49;;;;;;;12.70;11.50;;;;;;;;;;4979721;28;20131;-71
2021/12/08 04:29:17;;;;;;;11.88;10.90;;;;;;;;;;5002403;28;20033;-72
2021/12/08 04:31:44;;;;;;;11.35;10.52;;;;;;;;;;4991080;28;20066;-72
2021/12/08 04:34:18;;;;;;;11.88;10.88;;;;;;;;;;4973946;28;20082;-72
2021/12/08 04:36:47;;;;;;;12.48;11.48;;;;;;;;;;4987921;28;20986;-73
2021/12/08 04:39:47;;;;;;;27.45;16.80;;;;;;;;;;5003548;28;20514;-73
2021/12/08 04:42:17;;;;;;;13.88;12.45;;;;;;;;;;4996005;28;20044;-72
2021/12/08 04:44:51;;;;;;;13.38;11.45;;;;;;;;;;4993747;28;20333;-72
2021/12/08 04:52:45;;;;;;;13.80;12.40;;;;;;;;;;4996311;28;20353;-70
2021/12/08 05:09:32;;;;;;;14.48;13.02;;;;;;;;;;4941085;28;20499;-72
2021/12/08 05:12:11;;;;;;;13.43;12.32;;;;;;;;;;4947576;29;20091;-72
2021/12/08 05:14:45;;;;;;;13.23;12.07;;;;;;;;;;4948935;29;20557;-71
2021/12/08 05:17:35;;;;;;;13.52;12.48;;;;;;;;;;4949954;28;20043;-71
2021/12/08 05:20:12;;;;;;;13.98;12.80;;;;;;;;;;4947668;28;20091;-71
2021/12/08 05:22:44;;;;;;;14.95;13.40;;;;;;;;;;4949513;29;20514;-71
2021/12/08 05:25:14;;;;;;;16.35;14.25;;;;;;;;;;4932428;28;20491;-71
2021/12/08 05:27:44;;;;;;;15.13;13.68;;;;;;;;;;4948187;28;20449;-71
2021/12/08 05:30:19;;;;;;;15.30;13.98;;;;;;;;;;4949248;29;20063;-71
2021/12/08 05:32:45;;;;;;;15.95;14.35;;;;;;;;;;4933603;29;20062;-71
2021/12/08 05:35:14;;;;;;;16.38;14.82;;;;;;;;;;4931220;28;20243;-71
2021/12/08 05:37:40;;;;;;;16.30;14.70;;;;;;;;;;4969427;28;20072;-72
2021/12/08 05:40:14;;;;;;;13.90;12.80;;;;;;;;;;4993888;28;20038;-72
2021/12/08 05:42:40;;;;;;;14.63;13.20;;;;;;;;;;4990581;28;20030;-71
2021/12/08 05:45:10;;;;;;;14.50;13.13;;;;;;;;;;4987754;28;20454;-72
2021/12/08 05:47:36;;;;;;;14.70;13.23;;;;;;;;;;4996926;28;20077;-72
2021/12/08 05:50:02;;;;;;;14.90;13.60;;;;;;;;;;4987801;28;20065;-71
2021/12/08 05:52:28;;;;;;;15.27;13.73;;;;;;;;;;4987851;28;20034;-72
2021/12/08 05:54:54;;;;;;;15.27;13.80;;;;;;;;;;4990928;28;20068;-71
2021/12/08 05:57:33;;;;;;;15.32;13.93;;;;;;;;;;4983216;28;20406;-72
2021/12/08 05:59:59;;;;;;;14.27;12.85;;;;;;;;;;4984094;28;20057;-71
2021/12/08 06:02:31;;;;;;;16.13;14.63;;;;;;;;;;4989175;28;20121;-71
2021/12/08 06:04:59;;;;;;;15.50;14.20;;;;;;;;;;4973931;28;20038;-71
2021/12/08 06:07:25;;;;;;;15.88;14.38;;;;;;;;;;4986456;28;20035;-72
2021/12/08 06:09:54;;;;;;;16.20;14.65;;;;;;;;;;4986208;28;20046;-70
2021/12/08 06:12:22;;;;;;;15.70;14.15;;;;;;;;;;4988291;28;20097;-71
2021/12/08 06:14:53;;;;;;;16.95;15.02;;;;;;;;;;4977227;28;20478;-71
2021/12/08 06:17:21;;;;;;;16.30;14.68;;;;;;;;;;4975431;28;20081;-71
2021/12/08 06:19:47;;;;;;;15.45;13.98;;;;;;;;;;4991984;28;20536;-71
2021/12/08 06:22:15;;;;;;;16.98;13.85;;;;;;;;;;4998829;28;20026;-72
2021/12/08 06:24:41;;;;;;;18.02;14.90;;;;;;;;;;4979749;28;20047;-71
2021/12/08 06:27:07;;;;;;;15.88;14.25;;;;;;;;;;4986764;28;20537;-71
2021/12/08 06:29:33;;;;;;;15.30;13.90;;;;;;;;;;5000583;28;20042;-72
2021/12/08 06:32:01;;;;;;;16.25;13.75;;;;;;;;;;4973136;28;20296;-71
2021/12/08 06:34:28;;;;;;;17.73;15.15;;;;;;;;;;4971350;28;20283;-72
2021/12/08 06:37:04;;;;;;;17.02;15.23;;;;;;;;;;4989897;28;20041;-72
2021/12/08 06:39:41;;;;;;;19.67;17.13;;;;;;;;;;4990753;28;20113;-71
2021/12/08 06:42:11;;;;;;;14.77;13.52;;;;;;;;;;4989302;28;20034;-72
2021/12/08 06:44:40;;;;;;;18.08;16.27;;;;;;;;;;4993034;28;20042;-71
2021/12/08 06:47:09;;;;;;;163.65;40.33;;;;;;;;;;4993610;28;20062;-72
2021/12/08 06:49:36;;;;;;;32.03;17.55;;;;;;;;;;4974313;28;20409;-72
2021/12/08 06:52:10;;;;;;;19.40;17.30;;;;;;;;;;4975356;28;20039;-71
2021/12/08 06:54:40;;;;;;;33.78;26.40;;;;;;;;;;4990722;28;20260;-72
2021/12/08 06:57:13;;;;;;;17.95;16.08;;;;;;;;;;4981541;28;20445;-72
2021/12/08 06:59:51;;;;;;;28.58;24.02;;;;;;;;;;4980599;28;21302;-71
2021/12/08 07:02:36;;;;;;;23.85;20.05;;;;;;;;;;4981572;28;20077;-72
2021/12/08 07:05:13;;;;;;;20.00;18.02;;;;;;;;;;4982813;28;20408;-72
2021/12/08 07:07:42;;;;;;;22.90;19.02;;;;;;;;;;4980051;28;20039;-72
2021/12/08 07:10:21;;;;;;;20.70;18.53;;;;;;;;;;4979356;28;20053;-71
2021/12/08 07:12:52;;;;;;;17.23;15.38;;;;;;;;;;4980140;28;20395;-71
2021/12/08 07:15:25;;;;;;;20.00;18.10;;;;;;;;;;4977285;28;20059;-71
2021/12/08 07:17:54;;;;;;;15.32;14.02;;;;;;;;;;4977207;28;20120;-72
2021/12/08 07:20:46;;;;;;;13.88;12.77;;;;;;;;;;4951410;28;20043;-71
2021/12/08 07:23:17;;;;;;;15.85;14.38;;;;;;;;;;4983329;28;20457;-73
2021/12/08 07:25:44;;;;;;;17.05;15.23;;;;;;;;;;4975700;28;20478;-72
2021/12/08 07:28:13;;;;;;;16.75;15.15;;;;;;;;;;4976755;28;20038;-73
2021/12/08 07:30:49;;;;;;;16.35;14.95;;;;;;;;;;4979783;28;20520;-73
2021/12/08 07:33:15;;;;;;;18.33;16.52;;;;;;;;;;4982916;28;20077;-73
2021/12/08 07:35:46;;;;;;;20.30;18.20;;;;;;;;;;4979767;28;20034;-73
2021/12/08 07:38:17;;;;;;;20.15;17.90;;;;;;;;;;4984599;28;20038;-71
2021/12/08 07:41:06;;;;;;;29.83;21.92;;;;;;;;;;4996465;28;20038;-72
2021/12/08 07:43:34;;;;;;;21.17;18.30;;;;;;;;;;4982672;28;20373;-72
2021/12/08 07:46:07;;;;;;;21.98;18.17;;;;;;;;;;4976891;28;20097;-72
2021/12/08 07:48:58;;;;;;;23.80;21.15;;;;;;;;;;4978116;28;20048;-72
2021/12/08 07:51:32;;;;;;;25.45;17.90;;;;;;;;;;4979211;28;20375;-72
2021/12/08 07:54:00;;;;;;;20.48;18.30;;;;;;;;;;4974530;28;20125;-72
2021/12/08 07:56:26;;;;;;;19.35;17.27;;;;;;;;;;4977096;28;20521;-72
2021/12/08 07:59:00;;;;;;;21.60;18.38;;;;;;;;;;4977185;28;20056;-72
2021/12/08 08:01:30;;;;;;;20.08;17.73;;;;;;;;;;4982054;28;20123;-72
2021/12/08 08:03:56;;;;;;;22.27;18.75;;;;;;;;;;4976487;28;20045;-72
2021/12/08 08:06:44;;;;;;;19.50;17.25;;;;;;;;;;4978650;28;20042;-72
2021/12/08 08:09:18;;;;;;;24.80;18.90;;;;;;;;;;4963165;28;20044;-72
2021/12/08 08:11:48;;;;;;;28.55;22.00;;;;;;;;;;4976356;28;20635;-72
2021/12/08 08:14:19;;;;;;;24.95;18.70;;;;;;;;;;4983793;28;20037;-72
2021/12/08 08:16:50;;;;;;;20.42;17.77;;;;;;;;;;4976038;28;20505;-72
2021/12/08 08:19:19;;;;;;;20.52;18.40;;;;;;;;;;4975926;28;20132;-72
2021/12/08 08:21:48;;;;;;;24.13;20.67;;;;;;;;;;4982140;28;20153;-72
2021/12/08 08:24:15;;;;;;;23.92;18.80;;;;;;;;;;4978507;28;20285;-72
2021/12/08 08:26:42;;;;;;;24.40;19.83;;;;;;;;;;4973361;28;20125;-71
2021/12/08 08:29:10;;;;;;;18.00;15.23;;;;;;;;;;4963092;28;20046;-72
2021/12/08 08:31:43;;;;;;;20.30;18.10;;;;;;;;;;4975317;28;20805;-72
2021/12/08 08:34:10;;;;;;;20.48;18.30;;;;;;;;;;4980958;28;20578;-72
2021/12/08 08:36:46;;;;;;;21.75;18.15;;;;;;;;;;4978414;28;20038;-72
2021/12/08 08:39:17;;;;;;;22.55;19.08;;;;;;;;;;4979498;28;20555;-72
2021/12/08 08:41:47;;;;;;;21.98;18.73;;;;;;;;;;4982373;28;20117;-72
2021/12/08 08:44:18;;;;;;;24.08;19.75;;;;;;;;;;4976240;28;20038;-72
2021/12/08 08:46:46;;;;;;;26.80;18.95;;;;;;;;;;4977421;28;20031;-72
2021/12/08 08:49:20;;;;;;;20.20;18.10;;;;;;;;;;4976017;28;20042;-72
2021/12/08 08:51:59;;;;;;;20.70;18.50;;;;;;;;;;4982215;28;20066;-72
2021/12/08 08:54:29;;;;;;;23.80;19.48;;;;;;;;;;4968078;28;20545;-72
2021/12/08 08:56:57;;;;;;;;;;;;;;;;;;4988726;28;20030;-72
2021/12/08 08:59:27;;;;;;;18.75;16.95;;;;;;;;;;4973998;28;19918;-73
2021/12/08 09:01:55;;;;;;;18.92;17.05;;;;;;;;;;4974484;28;20034;-73
2021/12/08 09:04:31;;;;;;;26.40;20.23;;;;;;;;;;4979321;28;20046;-73
2021/12/08 09:07:02;;;;;;;29.90;24.70;;;;;;;;;;4979383;28;20066;-73
2021/12/08 09:09:31;;;;;;;31.38;23.73;;;;;;;;;;4968220;28;20151;-74
2021/12/08 09:12:10;;;;;;;29.95;23.77;;;;;;;;;;4980514;28;20047;-73
2021/12/08 09:15:01;;;;;;;31.95;22.40;;;;;;;;;;4979273;28;20045;-73
2021/12/08 09:17:43;;;;;;;25.35;22.77;;;;;;;;;;4956815;28;20081;-73
2021/12/08 09:20:28;;;;;;;23.98;20.17;;;;;;;;;;4972165;28;20034;-73
2021/12/08 09:23:02;;;;;;;23.88;19.83;;;;;;;;;;4982482;28;20766;-73
2021/12/08 09:25:36;;;;;;;23.05;19.45;;;;;;;;;;4977117;28;20038;-73
2021/12/08 09:28:13;;;;;;;19.92;17.98;;;;;;;;;;4983107;28;20035;-73
2021/12/08 09:30:45;;;;;;;19.80;17.75;;;;;;;;;;4990463;28;20041;-73
2021/12/08 09:33:25;;;;;;;19.05;17.05;;;;;;;;;;4981170;28;20041;-73
2021/12/08 09:36:00;;;;;;;20.52;18.45;;;;;;;;;;4982684;28;20050;-73
2021/12/08 09:38:32;;;;;;;31.98;25.67;;;;;;;;;;4980607;28;20045;-74
2021/12/08 09:41:03;;;;;;;23.05;20.58;;;;;;;;;;4980234;28;20053;-74
2021/12/08 09:43:43;;;;;;;22.38;19.15;;;;;;;;;;4993115;28;20509;-74
2021/12/08 09:46:23;;;;;;;21.48;18.50;;;;;;;;;;5001767;28;20030;-74
2021/12/08 09:48:49;;;;;;;17.83;16.13;;;;;;;;;;4991418;28;20214;-74
2021/12/08 09:51:18;;;;;;;17.83;16.25;;;;;;;;;;4969860;28;20065;-73
2021/12/08 09:53:45;;;;;;;23.27;19.58;;;;;;;;;;4983509;28;20030;-73
2021/12/08 09:56:11;;;;;;;24.75;19.58;;;;;;;;;;4981811;28;20395;-73
2021/12/08 09:58:38;;;;;;;19.60;16.13;;;;;;;;;;4977626;28;20845;-73
2021/12/08 10:01:06;;;;;;;29.63;20.45;;;;;;;;;;4978089;28;20034;-73
2021/12/08 10:03:33;;;;;;;22.88;19.20;;;;;;;;;;4985330;28;20062;-73
2021/12/08 10:06:00;;;;;;;34.25;22.38;;;;;;;;;;4986467;28;20034;-73
2021/12/08 10:08:28;;;;;;;25.17;21.02;;;;;;;;;;4988320;28;20026;-73
2021/12/08 10:10:55;;;;;;;23.65;20.02;;;;;;;;;;4984033;28;20049;-74
2021/12/08 10:13:21;;;;;;;22.55;17.55;;;;;;;;;;4978880;28;20039;-74
2021/12/08 10:15:47;;;;;;;22.90;18.73;;;;;;;;;;4984930;28;20034;-73
2021/12/08 10:18:13;;;;;;;22.52;18.90;;;;;;;;;;4976204;28;20041;-73
2021/12/08 10:20:46;;;;;;;18.95;16.77;;;;;;;;;;4991217;28;20386;-73
2021/12/08 10:23:30;;;;;;;17.38;15.68;;;;;;;;;;4986090;28;20046;-73
2021/12/08 10:26:18;;;;;;;24.13;19.65;;;;;;;;;;4979487;28;20046;-74
2021/12/08 10:28:48;;;;;;;22.75;20.33;;;;;;;;;;4994192;28;20089;-74
2021/12/08 10:31:26;;;;;;;25.38;22.80;;;;;;;;;;4975094;28;20082;-74
2021/12/08 10:34:30;;;;;;;24.63;20.00;;;;;;;;;;4986732;28;20038;-74
2021/12/08 10:36:57;;;;;;;17.67;16.00;;;;;;;;;;4993919;28;20045;-74
2021/12/08 10:39:38;;;;;;;17.67;15.95;;;;;;;;;;4984581;28;20041;-74
2021/12/08 10:42:22;;;;;;;23.52;21.05;;;;;;;;;;4954459;28;20034;-74
2021/12/08 10:45:11;;;;;;;18.13;16.48;;;;;;;;;;4975522;28;20049;-74
2021/12/08 10:47:44;;;;;;;;;;;;;;;;;;4988060;28;20034;-74
2021/12/08 10:56:08;;;;;;;19.13;17.30;;;;;;;;;;4983443;28;20041;-73
2021/12/08 10:58:37;;;;;;;16.95;15.10;;;;;;;;;;4987187;28;20041;-73
2021/12/08 11:01:22;;;;;;;19.05;17.05;;;;;;;;;;4984039;28;20034;-73
2021/12/08 11:03:50;;;;;;;17.88;16.20;;;;;;;;;;4986734;28;20038;-73
2021/12/08 11:06:19;;;;;;;18.52;16.83;;;;;;;;;;4982127;28;20030;-74
2021/12/08 11:08:47;;;;;;;18.30;16.52;;;;;;;;;;4987258;28;20575;-73
2021/12/08 11:11:26;;;;;;;18.27;16.63;;;;;;;;;;4985941;28;20428;-73
2021/12/08 11:13:54;;;;;;;16.77;15.38;;;;;;;;;;4989746;28;20050;-73
2021/12/08 11:16:24;;;;;;;17.40;15.90;;;;;;;;;;4972040;28;20042;-73
2021/12/08 11:19:21;;;;;;;20.98;16.40;;;;;;;;;;4990270;28;20050;-73
2021/12/08 11:21:49;;;;;;;17.73;16.02;;;;;;;;;;4986455;28;20062;-73
2021/12/08 11:24:55;;;;;;;20.57;17.60;;;;;;;;;;4980860;28;20045;-73
2021/12/08 11:27:30;;;;;;;22.05;18.35;;;;;;;;;;4980617;28;20769;-73
2021/12/08 11:29:56;;;;;;;21.13;19.08;;;;;;;;;;4972230;28;20078;-74
2021/12/08 11:32:24;;;;;;;23.08;19.45;;;;;;;;;;4986202;28;20093;-73
2021/12/08 11:34:51;;;;;;;20.80;18.65;;;;;;;;;;4978148;28;20038;-74
2021/12/08 11:37:22;;;;;;;22.95;19.98;;;;;;;;;;4991952;28;20113;-73
2021/12/08 11:39:52;;;;;;;19.55;17.65;;;;;;;;;;4973210;28;20046;-73
2021/12/08 11:42:20;;;;;;;17.15;15.63;;;;;;;;;;4971792;28;20027;-73
2021/12/08 11:44:53;;;;;;;18.65;16.95;;;;;;;;;;4994818;28;20846;-73
2021/12/08 11:47:25;;;;;;;19.17;17.17;;;;;;;;;;4982891;28;20063;-73
2021/12/08 11:49:55;;;;;;;19.38;17.55;;;;;;;;;;4962014;28;20055;-74
2021/12/08 11:52:24;;;;;;;18.05;16.35;;;;;;;;;;4980781;28;20248;-74
2021/12/08 11:54:54;;;;;;;20.05;18.05;;;;;;;;;;4995333;28;20078;-74
2021/12/08 11:57:40;;;;;;;22.52;20.33;;;;;;;;;;4981779;28;20030;-74
2021/12/08 12:00:18;;;;;;;20.40;18.25;;;;;;;;;;4978889;28;20034;-73
2021/12/08 12:02:59;;;;;;;22.70;19.23;;;;;;;;;;4982705;28;20057;-73
2021/12/08 12:05:47;;;;;;;25.30;21.25;;;;;;;;;;4958017;28;20066;-73
2021/12/08 12:08:20;;;;;;;23.83;20.75;;;;;;;;;;4970802;28;20041;-72
2021/12/08 12:10:49;;;;;;;24.73;20.77;;;;;;;;;;4999640;28;20061;-73
2021/12/08 12:13:15;;;;;;;21.98;19.58;;;;;;;;;;4974795;28;20449;-74
2021/12/08 12:15:46;;;;;;;22.60;19.73;;;;;;;;;;4984371;28;20035;-73
2021/12/08 12:18:13;;;;;;;20.45;18.35;;;;;;;;;;4983840;28;20400;-73
2021/12/08 12:20:40;;;;;;;24.95;21.50;;;;;;;;;;4978678;28;20057;-74
2021/12/08 12:23:12;;;;;;;29.52;25.67;;;;;;;;;;4968967;28;20045;-74
2021/12/08 12:25:50;;;;;;;22.00;19.20;;;;;;;;;;4978532;28;20117;-73
2021/12/08 12:28:30;;;;;;;38.83;24.42;;;;;;;;;;4983996;28;20034;-74
2021/12/08 12:31:20;;;;;;;45.05;24.13;;;;;;;;;;4968715;28;20043;-74
2021/12/08 12:33:49;;;;;;;34.53;30.80;;;;;;;;;;4980994;28;20126;-74
2021/12/08 12:36:24;;;;;;;17.63;16.17;;;;;;;;;;4983815;28;20027;-73
2021/12/08 12:38:51;;;;;;;26.20;19.67;;;;;;;;;;4959206;28;20097;-74
2021/12/08 12:41:30;;;;;;;21.27;17.27;;;;;;;;;;4973445;28;20045;-73
2021/12/08 12:44:19;;;;;;;32.47;26.00;;;;;;;;;;4983573;28;20035;-73
2021/12/08 12:47:03;;;;;;;;;;;;;;;;;;4982238;28;20041;-73
2021/12/08 12:49:30;;;;;;;19.33;17.45;;;;;;;;;;4977583;28;20453;-73
2021/12/08 12:52:04;;;;;;;18.55;16.88;;;;;;;;;;4987906;28;20034;-72
2021/12/08 12:54:30;;;;;;;70.03;51.72;;;;;;;;;;4988471;28;20080;-72
2021/12/08 12:56:56;;;;;;;20.05;17.95;;;;;;;;;;4972414;28;20035;-73
2021/12/08 12:59:27;;;;;;;22.92;19.58;;;;;;;;;;4984405;28;20053;-73
2021/12/08 13:02:32;;;;;;;75.85;49.30;;;;;;;;;;4987919;28;20022;-73
2021/12/08 13:05:00;;;;;;;18.15;16.35;;;;;;;;;;4912793;29;20507;-74
2021/12/08 13:07:29;;;;;;;22.05;19.63;;;;;;;;;;4929690;29;20035;-74
2021/12/08 13:09:57;;;;;;;69.40;42.30;;;;;;;;;;4929959;29;20058;-74
2021/12/08 13:12:27;;;;;;;20.48;18.45;;;;;;;;;;4931485;29;20039;-75
2021/12/08 13:15:08;;;;;;;19.35;17.38;;;;;;;;;;4927417;29;20129;-74
2021/12/08 13:17:35;;;;;;;18.10;16.55;;;;;;;;;;4929074;29;20507;-74
2021/12/08 13:20:05;;;;;;;17.77;16.23;;;;;;;;;;4933120;29;20067;-74
2021/12/08 13:22:59;;;;;;;19.15;17.25;;;;;;;;;;4915124;29;20044;-74
2021/12/08 13:25:44;;;;;;;19.58;17.67;;;;;;;;;;4930006;29;20535;-76
2021/12/08 13:28:18;;;;;;;20.40;18.50;;;;;;;;;;4916197;29;20075;-72
2021/12/08 13:30:47;;;;;;;20.13;18.10;;;;;;;;;;4925020;29;20071;-76
2021/12/08 13:33:38;;;;;;;19.42;16.60;;;;;;;;;;4926622;29;20031;-75
2021/12/08 13:36:22;;;;;;;19.10;16.98;;;;;;;;;;4930244;29;20066;-76
2021/12/08 13:38:53;;;;;;;18.48;16.52;;;;;;;;;;4922971;29;20042;-75
2021/12/08 13:41:21;;;;;;;17.17;15.38;;;;;;;;;;4955602;28;20073;-76
2021/12/08 13:43:51;;;;;;;18.38;16.77;;;;;;;;;;4986271;28;20042;-78
2021/12/08 13:46:36;;;;;;;17.98;16.25;;;;;;;;;;4973239;28;20402;-70
2021/12/08 13:49:47;;;;;;;21.60;16.90;;;;;;;;;;4983469;28;20034;-78
2021/12/08 13:52:17;;;;;;;19.45;17.60;;;;;;;;;;4965932;28;20106;-78
2021/12/08 13:54:44;;;;;;;;;;;;;;;;;;4954596;28;20538;-77
2021/12/08 13:57:34;;;;;;;19.08;17.33;;;;;;;;;;4972541;28;19960;-77
2021/12/08 14:00:17;;;;;;;19.48;17.30;;;;;;;;;;4961206;28;20085;-76
2021/12/08 14:02:45;;;;;;;18.23;16.00;;;;;;;;;;4951100;28;20062;-78
2021/12/08 14:05:18;;;;;;;18.27;15.98;;;;;;;;;;4950475;28;20038;-78
2021/12/08 14:08:09;;;;;;;23.60;16.92;;;;;;;;;;4962836;28;20050;-77
2021/12/08 14:10:38;;;;;;;22.88;17.88;;;;;;;;;;4928306;28;20142;-78
2021/12/08 14:13:08;;;;;;;;;;;;;;;;;;4954075;28;20047;-78
2021/12/08 14:15:43;;;;;;;17.00;15.18;;;;;;;;;;4952183;28;19918;-77
2021/12/08 14:18:14;;;;;;;30.15;18.50;;;;;;;;;;4968014;28;20035;-77
2021/12/08 14:20:40;;;;;;;24.63;17.48;;;;;;;;;;4978395;28;20061;-78
2021/12/08 14:23:06;;;;;;;27.25;17.83;;;;;;;;;;4988021;28;20186;-78
2021/12/08 14:25:37;;;;;;;23.02;18.67;;;;;;;;;;4970026;28;20078;-77
2021/12/08 14:28:39;;;;;;;24.65;18.48;;;;;;;;;;4958613;28;20054;-77
2021/12/08 14:31:21;;;;;;;19.45;17.45;;;;;;;;;;4967257;28;20043;-77
2021/12/08 14:33:53;;;;;;;21.25;18.98;;;;;;;;;;4974446;28;20034;-77
2021/12/08 14:36:30;;;;;;;22.50;18.65;;;;;;;;;;4966494;28;20035;-76
2021/12/08 14:38:59;;;;;;;19.95;17.85;;;;;;;;;;4971203;28;20058;-75
2021/12/08 14:41:32;;;;;;;26.65;20.58;;;;;;;;;;4971347;28;20027;-75
2021/12/08 14:44:11;;;;;;;24.98;19.20;;;;;;;;;;4970154;28;20042;-76
2021/12/08 14:46:37;;;;;;;23.77;19.15;;;;;;;;;;4976594;28;20101;-76
2021/12/08 14:49:08;;;;;;;29.77;21.05;;;;;;;;;;4960100;28;20441;-74
2021/12/08 14:51:35;;;;;;;30.60;22.60;;;;;;;;;;4958000;28;20039;-74
2021/12/08 14:54:09;;;;;;;73.07;33.95;;;;;;;;;;4960248;28;20058;-74
2021/12/08 14:56:36;;;;;;;63.35;29.73;;;;;;;;;;4961668;28;21496;-74
2021/12/08 14:59:03;;;;;;;31.60;22.05;;;;;;;;;;4962890;28;20046;-74
2021/12/08 15:01:29;;;;;;;23.95;20.67;;;;;;;;;;4979991;28;20042;-76
2021/12/08 15:03:55;;;;;;;32.58;25.95;;;;;;;;;;4984776;28;20235;-75
2021/12/08 15:06:23;;;;;;;26.75;19.88;;;;;;;;;;4978001;28;20572;-76
2021/12/08 15:08:49;;;;;;;21.70;19.40;;;;;;;;;;4979680;28;20404;-76
2021/12/08 15:11:24;;;;;;;23.95;19.65;;;;;;;;;;4979631;28;20038;-75
2021/12/08 15:13:50;;;;;;;35.65;25.83;;;;;;;;;;4980077;28;20521;-76
2021/12/08 15:16:20;;;;;;;21.27;19.17;;;;;;;;;;4977178;28;20409;-76
2021/12/08 15:18:50;;;;;;;;;;;;;;;;;;4978047;28;20034;-75
2021/12/08 15:21:37;;;;;;;26.85;20.70;;;;;;;;;;4982242;28;19914;-75
2021/12/08 15:24:09;;;;;;;33.17;23.95;;;;;;;;;;4962516;28;20043;-74
2021/12/08 15:26:35;;;;;;;63.42;46.33;;;;;;;;;;4981259;28;20130;-75
2021/12/08 15:29:04;;;;;;;32.47;23.33;;;;;;;;;;4966072;28;20070;-74
2021/12/08 15:31:35;;;;;;;32.78;24.08;;;;;;;;;;4982475;28;20134;-75